Terminal Aerodrome Forecast
Issued by NWS North Platte, NE

Home | Current Version | Previous Version | Text Only | Print | Product List | Glossary Off
Versions: 1 2 3 4 5 6 7 8 9 10 11 12 13 14 15 16

920
FTUS43 KLBF 151139
TAFVTN
TAF
KVTN 151139Z 1512/1612 31005KT P6SM BKN110
     FM151800 36009KT P6SM VCSH BKN015
     FM152000 36013G22KT 4SM -SN OVC010
     FM160000 35015G24KT 6SM -SHSN OVC015
     FM160300 34012KT P6SM SCT015 BKN030
     FM160600 31008KT P6SM BKN250=

USA.gov is the U.S. government's official web portal to all federal, state and local government web resources and services.